Time;durP1;ratioP1;P1;durP2;ratioP2;P2;SDS_P1;SDS_P2;PMS_P1;PMS_P2;Temp;Humidity;BMP_temperature;BMP_pressure;BME280_temperature;BME280_humidity;BME280_pressure;Samples;Min_cycle;Max_cycle;Signal;HPM_P1;HPM_P2
2021/09/16 00:01:38;;;;;;;17.65;3.20;;;;;;;;;;4981092;28;19922;-79
2021/09/16 00:04:04;;;;;;;;;;;;;;;;;;4976909;28;20031;-78
2021/09/16 00:06:31;;;;;;;13.32;2.70;;;;;;;;;;4957448;28;19918;-78
2021/09/16 00:08:57;;;;;;;17.80;2.47;;;;;;;;;;4965047;28;20101;-78
2021/09/16 00:11:24;;;;;;;14.73;2.95;;;;;;;;;;4959480;28;20050;-77
2021/09/16 00:13:51;;;;;;;15.18;2.67;;;;;;;;;;4956228;28;20050;-78
2021/09/16 00:16:18;;;;;;;;;;;;;;;;;;4960676;28;20224;-77
2021/09/16 00:18:44;;;;;;;;;;;;;;;;;;4976510;28;20607;-78
2021/09/16 00:21:10;;;;;;;15.80;2.30;;;;;;;;;;4961316;28;19943;-78
2021/09/16 00:23:36;;;;;;;;;;;;;;;;;;4958181;28;20042;-78
2021/09/16 00:26:04;;;;;;;15.27;2.35;;;;;;;;;;4957898;28;20514;-78
2021/09/16 00:28:30;;;;;;;14.07;2.63;;;;;;;;;;4955810;28;20031;-81
2021/09/16 00:30:56;;;;;;;;;;;;;;;;;;4977807;28;20030;-80
2021/09/16 00:33:22;;;;;;;15.73;3.00;;;;;;;;;;4959906;28;19933;-80
2021/09/16 00:35:48;;;;;;;;;;;;;;;;;;4959239;28;20443;-80
2021/09/16 00:38:15;;;;;;;14.82;2.20;;;;;;;;;;4987726;28;20452;-79
2021/09/16 00:40:41;;;;;;;11.70;2.33;;;;;;;;;;4981942;28;20822;-79
2021/09/16 00:43:07;;;;;;;;;;;;;;;;;;4963703;28;20046;-79
2021/09/16 00:45:33;;;;;;;9.43;2.13;;;;;;;;;;4968673;28;19914;-79
2021/09/16 00:47:59;;;;;;;;;;;;;;;;;;4979532;28;20026;-79
2021/09/16 00:50:26;;;;;;;10.75;2.30;;;;;;;;;;4970842;28;20310;-80
2021/09/16 00:52:53;;;;;;;12.60;2.97;;;;;;;;;;4965048;28;20050;-78
2021/09/16 00:55:20;;;;;;;12.02;2.05;;;;;;;;;;4974101;28;20027;-78
2021/09/16 00:57:51;;;;;;;7.70;1.80;;;;;;;;;;4975990;28;20874;-79
2021/09/16 01:00:19;;;;;;;9.30;2.05;;;;;;;;;;4963705;28;20034;-76
2021/09/16 01:02:45;;;;;;;11.57;2.58;;;;;;;;;;4965453;28;20035;-79
2021/09/16 01:05:11;;;;;;;;;;;;;;;;;;4974983;28;20069;-78
2021/09/16 01:07:39;;;;;;;9.82;1.83;;;;;;;;;;4957051;28;20962;-79
2021/09/16 01:10:07;;;;;;;12.02;2.08;;;;;;;;;;4963271;28;20031;-77
2021/09/16 01:12:34;;;;;;;10.35;1.80;;;;;;;;;;4958474;28;20139;-78
2021/09/16 01:15:00;;;;;;;11.57;2.50;;;;;;;;;;4964251;28;20015;-78
2021/09/16 01:17:27;;;;;;;10.82;2.00;;;;;;;;;;4972415;28;20474;-79
2021/09/16 01:19:53;;;;;;;;;;;;;;;;;;4951945;28;20142;-77
2021/09/16 01:22:20;;;;;;;9.38;1.60;;;;;;;;;;4949487;28;20253;-77
2021/09/16 01:24:48;;;;;;;6.82;1.50;;;;;;;;;;4943971;28;20039;-78
2021/09/16 01:27:15;;;;;;;8.30;1.60;;;;;;;;;;4959741;28;20117;-78
2021/09/16 01:29:42;;;;;;;9.63;2.10;;;;;;;;;;4941048;28;20082;-77
2021/09/16 01:32:09;;;;;;;8.32;2.17;;;;;;;;;;4947579;28;20196;-77
2021/09/16 01:34:35;;;;;;;9.57;2.30;;;;;;;;;;4952941;28;20069;-78
2021/09/16 01:37:01;;;;;;;9.60;1.70;;;;;;;;;;4957634;28;20093;-77
2021/09/16 01:39:29;;;;;;;9.50;1.73;;;;;;;;;;4937201;28;20814;-77
2021/09/16 01:41:55;;;;;;;12.82;2.08;;;;;;;;;;4945736;28;20109;-77
2021/09/16 01:44:21;;;;;;;10.43;1.55;;;;;;;;;;4967078;28;23172;-76
2021/09/16 01:46:47;;;;;;;10.32;1.95;;;;;;;;;;4961307;28;20130;-77
2021/09/16 01:49:13;;;;;;;;;;;;;;;;;;4962595;28;20037;-76
2021/09/16 01:51:40;;;;;;;11.60;2.05;;;;;;;;;;4969344;28;19914;-77
2021/09/16 01:54:06;;;;;;;12.68;2.15;;;;;;;;;;4962064;28;20018;-78
2021/09/16 01:56:33;;;;;;;8.75;1.60;;;;;;;;;;4967366;28;20035;-78
2021/09/16 01:59:00;;;;;;;32.17;19.10;;;;;;;;;;4962471;28;20050;-76
2021/09/16 02:01:27;;;;;;;13.52;3.75;;;;;;;;;;4958000;28;20041;-77
2021/09/16 02:03:54;;;;;;;11.15;2.30;;;;;;;;;;4955048;28;20042;-76
2021/09/16 02:06:20;;;;;;;;;;;;;;;;;;4968546;28;20061;-76
2021/09/16 02:08:47;;;;;;;12.65;1.75;;;;;;;;;;4955769;28;19925;-76
2021/09/16 02:11:13;;;;;;;11.68;1.73;;;;;;;;;;4960282;28;20047;-77
2021/09/16 02:13:39;;;;;;;;;;;;;;;;;;4955191;28;20092;-76
2021/09/16 02:16:05;;;;;;;9.32;1.70;;;;;;;;;;4972705;28;19921;-77
2021/09/16 02:18:32;;;;;;;13.85;2.20;;;;;;;;;;4950802;28;20031;-76
2021/09/16 02:20:58;;;;;;;13.77;2.05;;;;;;;;;;4961545;28;20031;-76
2021/09/16 02:23:24;;;;;;;;;;;;;;;;;;4969452;28;20035;-77
2021/09/16 02:25:50;;;;;;;11.75;1.88;;;;;;;;;;4963490;28;20346;-77
2021/09/16 02:28:18;;;;;;;9.93;1.67;;;;;;;;;;4974658;28;20185;-77
2021/09/16 02:30:44;;;;;;;9.93;1.92;;;;;;;;;;4954773;28;20145;-79
2021/09/16 02:33:11;;;;;;;9.52;1.75;;;;;;;;;;4963174;28;20041;-77
2021/09/16 02:35:37;;;;;;;15.45;2.65;;;;;;;;;;4971332;28;20682;-79
2021/09/16 02:38:03;;;;;;;;;;;;;;;;;;4959486;28;20050;-79
2021/09/16 02:40:29;;;;;;;13.07;2.70;;;;;;;;;;4967274;28;19921;-79
2021/09/16 02:42:55;;;;;;;;;;;;;;;;;;4961308;28;20121;-79
2021/09/16 02:45:21;;;;;;;11.60;1.58;;;;;;;;;;4953100;28;19914;-79
2021/09/16 02:47:47;;;;;;;10.80;2.20;;;;;;;;;;4964109;28;20125;-79
2021/09/16 02:50:13;;;;;;;;;;;;;;;;;;4951289;28;20038;-76
2021/09/16 02:52:40;;;;;;;10.88;2.45;;;;;;;;;;4949964;28;19929;-77
2021/09/16 02:55:06;;;;;;;12.23;2.90;;;;;;;;;;4975440;28;20042;-77
2021/09/16 02:57:32;;;;;;;11.52;2.28;;;;;;;;;;4954604;28;20464;-77
2021/09/16 02:59:58;;;;;;;;;;;;;;;;;;4970986;28;20269;-77
2021/09/16 03:02:25;;;;;;;11.82;2.13;;;;;;;;;;4968419;28;19926;-76
2021/09/16 03:04:51;;;;;;;13.05;2.42;;;;;;;;;;4974663;28;20404;-76
2021/09/16 03:07:17;;;;;;;;;;;;;;;;;;4973750;28;20146;-77
2021/09/16 03:09:43;;;;;;;11.00;1.80;;;;;;;;;;4956454;28;19914;-76
2021/09/16 03:12:09;;;;;;;11.02;1.85;;;;;;;;;;4958153;28;20070;-76
2021/09/16 03:14:35;;;;;;;;;;;;;;;;;;4954182;28;20516;-76
2021/09/16 03:17:02;;;;;;;14.70;2.22;;;;;;;;;;4955055;28;19929;-76
2021/09/16 03:19:29;;;;;;;13.57;1.98;;;;;;;;;;4953471;28;20038;-77
2021/09/16 03:21:55;;;;;;;;;;;;;;;;;;4971860;28;20034;-76
2021/09/16 03:24:21;;;;;;;14.95;2.40;;;;;;;;;;4953989;28;19924;-76
2021/09/16 03:26:48;;;;;;;13.20;2.20;;;;;;;;;;4960255;28;20118;-77
2021/09/16 03:29:14;;;;;;;;;;;;;;;;;;4950211;28;20035;-75
2021/09/16 03:31:40;;;;;;;15.32;2.05;;;;;;;;;;4955442;28;19929;-75
2021/09/16 03:34:06;;;;;;;;;;;;;;;;;;4962777;28;20045;-76
2021/09/16 03:36:32;;;;;;;12.75;1.88;;;;;;;;;;4967806;28;19922;-76
2021/09/16 03:38:59;;;;;;;;;;;;;;;;;;4977475;28;20988;-75
2021/09/16 03:41:25;;;;;;;13.57;2.20;;;;;;;;;;4960359;28;19949;-75
2021/09/16 03:43:52;;;;;;;;;;;;;;;;;;4960268;28;20174;-78
2021/09/16 03:46:18;;;;;;;17.52;2.42;;;;;;;;;;4959762;28;20682;-77
2021/09/16 03:48:44;;;;;;;13.48;2.58;;;;;;;;;;4962369;28;20043;-76
2021/09/16 03:51:11;;;;;;;;;;;;;;;;;;4971086;28;20070;-76
2021/09/16 03:53:37;;;;;;;;;;;;;;;;;;4957444;28;19921;-76
2021/09/16 03:56:04;;;;;;;15.90;2.67;;;;;;;;;;4962407;28;19929;-77
2021/09/16 03:58:30;;;;;;;13.90;2.35;;;;;;;;;;4968303;28;20065;-76
2021/09/16 04:00:57;;;;;;;13.23;2.28;;;;;;;;;;4975745;28;20038;-76
2021/09/16 04:03:24;;;;;;;;;;;;;;;;;;4960860;28;20062;-76
2021/09/16 04:05:50;;;;;;;17.98;2.97;;;;;;;;;;4962109;28;19926;-76
2021/09/16 04:08:16;;;;;;;;;;;;;;;;;;4977194;28;20023;-75
2021/09/16 04:10:42;;;;;;;28.05;11.82;;;;;;;;;;4952758;28;20323;-76
2021/09/16 04:13:08;;;;;;;;;;;;;;;;;;4958431;28;20053;-75
2021/09/16 04:15:34;;;;;;;15.93;3.20;;;;;;;;;;4970807;28;19914;-76
2021/09/16 04:18:00;;;;;;;13.65;2.30;;;;;;;;;;4959913;28;20050;-76
2021/09/16 04:20:26;;;;;;;;;;;;;;;;;;4965701;28;20273;-76
2021/09/16 04:22:52;;;;;;;13.68;2.33;;;;;;;;;;4975275;28;20337;-77
2021/09/16 04:25:20;;;;;;;16.98;2.92;;;;;;;;;;4968150;28;20041;-77
2021/09/16 04:27:46;;;;;;;17.20;2.78;;;;;;;;;;4972012;28;20042;-76
2021/09/16 04:30:13;;;;;;;;;;;;;;;;;;4977528;28;20034;-76
2021/09/16 04:32:39;;;;;;;20.88;3.03;;;;;;;;;;4962272;28;19921;-76
2021/09/16 04:35:07;;;;;;;20.25;3.17;;;;;;;;;;4960774;28;20044;-76
2021/09/16 04:37:33;;;;;;;16.20;3.72;;;;;;;;;;4955959;28;20038;-76
2021/09/16 04:39:59;;;;;;;24.42;4.30;;;;;;;;;;4960470;28;20042;-76
2021/09/16 04:42:25;;;;;;;;;;;;;;;;;;4953673;28;20766;-77
2021/09/16 04:44:51;;;;;;;19.48;3.00;;;;;;;;;;4973697;28;19917;-76
2021/09/16 04:47:20;;;;;;;16.70;2.90;;;;;;;;;;4979339;28;20039;-76
2021/09/16 04:49:47;;;;;;;15.90;3.05;;;;;;;;;;4957596;28;20824;-76
2021/09/16 04:52:13;;;;;;;14.90;2.65;;;;;;;;;;4959042;28;20385;-76
2021/09/16 04:54:39;;;;;;;;;;;;;;;;;;4961232;28;20037;-76
2021/09/16 04:57:05;;;;;;;18.10;3.00;;;;;;;;;;4958477;28;20438;-75
2021/09/16 04:59:32;;;;;;;;;;;;;;;;;;4956279;28;20045;-75
2021/09/16 05:01:58;;;;;;;17.75;2.47;;;;;;;;;;4964122;28;19967;-75
2021/09/16 05:04:26;;;;;;;16.02;2.70;;;;;;;;;;4972872;28;20034;-75
2021/09/16 05:06:52;;;;;;;21.85;3.08;;;;;;;;;;4959838;28;20041;-75
2021/09/16 05:09:19;;;;;;;17.08;3.85;;;;;;;;;;4976414;28;20100;-75
2021/09/16 05:11:46;;;;;;;16.88;2.90;;;;;;;;;;4962115;28;20340;-76
2021/09/16 05:14:13;;;;;;;14.40;3.08;;;;;;;;;;4959053;28;20045;-74
2021/09/16 05:16:39;;;;;;;17.83;3.70;;;;;;;;;;4958080;28;20894;-76
2021/09/16 05:19:05;;;;;;;15.57;3.63;;;;;;;;;;4960833;28;20065;-76
2021/09/16 05:21:32;;;;;;;15.07;3.33;;;;;;;;;;4952363;28;20073;-75
2021/09/16 05:23:58;;;;;;;;;;;;;;;;;;4966803;28;20022;-77
2021/09/16 05:26:24;;;;;;;25.30;4.00;;;;;;;;;;4955524;28;19922;-77
2021/09/16 05:28:51;;;;;;;17.55;2.97;;;;;;;;;;4972606;28;20562;-76
2021/09/16 05:31:18;;;;;;;14.45;3.08;;;;;;;;;;4965378;28;20073;-77
2021/09/16 05:33:46;;;;;;;21.20;3.85;;;;;;;;;;4974828;28;20119;-77
2021/09/16 05:36:12;;;;;;;17.05;2.97;;;;;;;;;;4958872;28;20031;-77
2021/09/16 05:38:39;;;;;;;18.17;2.75;;;;;;;;;;4958101;28;20066;-77
2021/09/16 05:41:05;;;;;;;20.38;3.40;;;;;;;;;;4961181;28;20500;-77
2021/09/16 05:43:31;;;;;;;18.83;3.38;;;;;;;;;;4952244;28;20088;-77
2021/09/16 05:45:57;;;;;;;17.88;3.20;;;;;;;;;;4960181;28;20594;-77
2021/09/16 05:48:25;;;;;;;19.63;3.13;;;;;;;;;;4959238;28;20049;-74
2021/09/16 05:50:51;;;;;;;16.70;3.28;;;;;;;;;;4959741;28;20038;-76
2021/09/16 05:53:17;;;;;;;21.33;2.70;;;;;;;;;;4957211;28;20043;-75
2021/09/16 05:55:45;;;;;;;16.45;2.85;;;;;;;;;;4961429;28;20031;-76
2021/09/16 05:58:12;;;;;;;17.08;2.75;;;;;;;;;;4955832;28;20046;-76
2021/09/16 06:00:38;;;;;;;14.18;2.70;;;;;;;;;;4967897;28;20732;-76
2021/09/16 06:03:05;;;;;;;18.77;3.22;;;;;;;;;;4964951;28;20628;-77
2021/09/16 06:05:31;;;;;;;20.25;2.83;;;;;;;;;;4968471;28;20040;-76
2021/09/16 06:07:57;;;;;;;16.17;2.92;;;;;;;;;;4957127;28;20884;-76
2021/09/16 06:10:23;;;;;;;16.20;2.58;;;;;;;;;;4958400;28;20038;-75
2021/09/16 06:12:50;;;;;;;15.68;3.17;;;;;;;;;;4956513;28;20089;-75
2021/09/16 06:15:17;;;;;;;22.55;3.42;;;;;;;;;;4962416;28;20038;-76
2021/09/16 06:17:45;;;;;;;16.33;3.00;;;;;;;;;;4957303;28;20038;-77
2021/09/16 06:20:11;;;;;;;21.98;3.03;;;;;;;;;;4973601;28;20270;-76
2021/09/16 06:22:37;;;;;;;19.98;3.13;;;;;;;;;;4951890;28;20034;-75
2021/09/16 06:25:04;;;;;;;16.70;2.85;;;;;;;;;;4968879;28;20364;-75
2021/09/16 06:27:30;;;;;;;17.52;2.97;;;;;;;;;;4953312;28;20110;-75
2021/09/16 06:29:56;;;;;;;22.42;4.22;;;;;;;;;;4960538;28;20022;-76
2021/09/16 06:32:23;;;;;;;20.75;3.20;;;;;;;;;;4958348;28;20046;-76
2021/09/16 06:34:50;;;;;;;17.92;3.60;;;;;;;;;;4956594;28;20042;-75
2021/09/16 06:37:16;;;;;;;17.23;2.95;;;;;;;;;;4956712;28;20065;-75
2021/09/16 06:39:43;;;;;;;20.40;3.40;;;;;;;;;;4970368;28;20062;-75
2021/09/16 06:42:09;;;;;;;19.02;3.60;;;;;;;;;;4958197;28;20738;-75
2021/09/16 06:44:35;;;;;;;19.83;3.42;;;;;;;;;;4953974;28;20038;-75
2021/09/16 06:47:02;;;;;;;25.73;3.42;;;;;;;;;;4958364;28;20034;-75
2021/09/16 06:49:28;;;;;;;19.90;3.28;;;;;;;;;;4968836;28;20042;-75
2021/09/16 06:51:56;;;;;;;22.40;3.55;;;;;;;;;;4972549;28;20126;-75
2021/09/16 06:54:22;;;;;;;18.42;3.70;;;;;;;;;;4956142;28;20080;-76
2021/09/16 06:56:48;;;;;;;23.88;3.53;;;;;;;;;;4957518;28;20030;-77
2021/09/16 06:59:15;;;;;;;22.45;4.18;;;;;;;;;;4968793;28;20069;-77
2021/09/16 07:01:41;;;;;;;21.88;4.07;;;;;;;;;;4968594;28;20038;-77
2021/09/16 07:04:07;;;;;;;27.55;5.25;;;;;;;;;;4962928;28;20041;-76
2021/09/16 07:06:33;;;;;;;27.90;4.18;;;;;;;;;;4950710;28;20788;-76
2021/09/16 07:09:00;;;;;;;28.58;5.30;;;;;;;;;;4971344;28;20109;-76
2021/09/16 07:11:26;;;;;;;23.40;4.72;;;;;;;;;;4968259;28;20222;-76
2021/09/16 07:13:52;;;;;;;26.00;4.03;;;;;;;;;;4955849;28;20065;-76
2021/09/16 07:16:19;;;;;;;27.25;4.30;;;;;;;;;;4956701;28;20050;-76
2021/09/16 07:18:46;;;;;;;26.00;4.70;;;;;;;;;;4974261;28;20053;-76
2021/09/16 07:21:12;;;;;;;27.17;4.90;;;;;;;;;;4953734;28;20038;-76
2021/09/16 07:23:38;;;;;;;31.73;4.75;;;;;;;;;;4967622;28;21801;-76
2021/09/16 07:26:05;;;;;;;25.58;4.93;;;;;;;;;;4957868;28;20138;-76
2021/09/16 07:28:35;;;;;;;28.65;4.80;;;;;;;;;;4967775;28;20104;-75
2021/09/16 07:31:01;;;;;;;27.92;5.07;;;;;;;;;;4954524;28;20227;-76
2021/09/16 07:33:28;;;;;;;28.40;5.03;;;;;;;;;;4977002;28;20040;-76
2021/09/16 07:35:54;;;;;;;27.88;4.72;;;;;;;;;;4971377;28;20060;-76
2021/09/16 07:38:22;;;;;;;37.35;4.95;;;;;;;;;;4953942;28;20104;-76
2021/09/16 07:40:48;;;;;;;26.20;4.40;;;;;;;;;;4958360;28;20088;-76
2021/09/16 07:43:15;;;;;;;27.33;4.85;;;;;;;;;;4953388;28;20035;-75
2021/09/16 07:45:41;;;;;;;31.38;5.40;;;;;;;;;;4950149;28;20065;-75
2021/09/16 07:48:07;;;;;;;28.00;4.53;;;;;;;;;;4960742;28;20101;-77
2021/09/16 07:50:33;;;;;;;26.95;4.88;;;;;;;;;;4948775;28;20507;-77
2021/09/16 07:53:00;;;;;;;29.67;4.90;;;;;;;;;;4956230;28;20043;-75
2021/09/16 07:55:31;;;;;;;24.42;4.57;;;;;;;;;;4954860;28;20042;-75
2021/09/16 07:57:57;;;;;;;26.23;4.70;;;;;;;;;;4956497;28;20046;-75
2021/09/16 08:00:23;;;;;;;29.35;4.75;;;;;;;;;;4966285;28;20037;-75
2021/09/16 08:02:50;;;;;;;21.83;4.60;;;;;;;;;;4960520;28;20197;-75
2021/09/16 08:05:18;;;;;;;25.35;5.22;;;;;;;;;;4970508;28;20093;-76
2021/09/16 08:07:44;;;;;;;23.70;4.13;;;;;;;;;;4951958;28;20031;-75
2021/09/16 08:10:12;;;;;;;30.25;5.03;;;;;;;;;;4960655;28;20042;-76
2021/09/16 08:12:38;;;;;;;18.85;4.03;;;;;;;;;;4950224;28;20039;-76
2021/09/16 08:15:05;;;;;;;20.10;3.35;;;;;;;;;;4954005;28;20121;-76
2021/09/16 08:17:31;;;;;;;18.15;3.75;;;;;;;;;;4959075;28;20045;-76
2021/09/16 08:19:58;;;;;;;17.65;3.28;;;;;;;;;;4974849;28;20452;-76
2021/09/16 08:22:24;;;;;;;18.95;4.10;;;;;;;;;;4970481;28;20035;-76
2021/09/16 08:24:50;;;;;;;16.60;4.07;;;;;;;;;;4961568;28;20488;-75
2021/09/16 08:27:18;;;;;;;17.83;4.10;;;;;;;;;;4961277;28;20064;-77
2021/09/16 08:29:44;;;;;;;16.35;3.42;;;;;;;;;;4956162;28;20050;-77
2021/09/16 08:32:10;;;;;;;16.98;3.22;;;;;;;;;;4973146;28;20038;-75
2021/09/16 08:34:37;;;;;;;18.92;3.75;;;;;;;;;;4970432;28;20073;-75
2021/09/16 08:37:03;;;;;;;22.60;3.67;;;;;;;;;;4970040;28;20046;-75
2021/09/16 08:39:30;;;;;;;14.63;3.05;;;;;;;;;;4958597;28;20540;-75
2021/09/16 08:41:56;;;;;;;16.05;3.30;;;;;;;;;;4976492;28;20104;-75
2021/09/16 08:44:23;;;;;;;15.45;3.10;;;;;;;;;;4949834;28;20591;-75
2021/09/16 08:46:49;;;;;;;15.82;3.13;;;;;;;;;;4970511;28;20041;-75
2021/09/16 08:49:15;;;;;;;15.32;3.00;;;;;;;;;;4959203;28;20092;-75
2021/09/16 08:51:42;;;;;;;17.95;3.47;;;;;;;;;;4951221;28;20150;-76
2021/09/16 08:54:09;;;;;;;13.15;2.85;;;;;;;;;;4959154;28;20039;-76
2021/09/16 08:56:36;;;;;;;15.45;2.75;;;;;;;;;;4955654;28;20798;-76
2021/09/16 08:59:07;;;;;;;12.63;2.92;;;;;;;;;;4958634;28;20050;-77
2021/09/16 09:01:33;;;;;;;21.25;3.15;;;;;;;;;;4963366;28;20089;-75
2021/09/16 09:03:59;;;;;;;14.45;3.05;;;;;;;;;;4956693;28;20088;-76
2021/09/16 09:06:38;;;;;;;14.23;3.03;;;;;;;;;;4951505;28;20758;-76
2021/09/16 09:09:09;;;;;;;13.25;2.85;;;;;;;;;;4972867;28;20404;-75
2021/09/16 09:11:54;;;;;;;18.67;3.47;;;;;;;;;;4953413;28;20114;-75
2021/09/16 09:14:21;;;;;;;17.92;3.22;;;;;;;;;;4952476;28;20034;-75
2021/09/16 09:16:48;;;;;;;12.27;2.72;;;;;;;;;;4956260;28;20034;-75
2021/09/16 09:19:19;;;;;;;17.75;2.83;;;;;;;;;;4974499;28;20618;-75
2021/09/16 09:21:45;;;;;;;14.00;2.70;;;;;;;;;;4974447;28;20682;-76
2021/09/16 09:24:12;;;;;;;17.55;2.75;;;;;;;;;;4958675;28;21030;-76
2021/09/16 09:26:40;;;;;;;13.38;2.75;;;;;;;;;;4958606;28;20695;-75
2021/09/16 09:29:09;;;;;;;11.32;2.72;;;;;;;;;;4956801;28;20045;-77
2021/09/16 09:31:36;;;;;;;13.30;3.08;;;;;;;;;;4969618;28;20034;-77
2021/09/16 09:34:21;;;;;;;11.73;3.10;;;;;;;;;;4958279;28;20049;-75
2021/09/16 09:36:48;;;;;;;14.48;2.97;;;;;;;;;;4960256;28;20873;-77
2021/09/16 09:39:14;;;;;;;12.77;2.80;;;;;;;;;;4955981;28;20046;-75
2021/09/16 09:41:40;;;;;;;13.20;2.25;;;;;;;;;;4955676;28;20062;-75
2021/09/16 09:44:08;;;;;;;12.15;2.42;;;;;;;;;;4961247;28;20069;-78
2021/09/16 09:46:51;;;;;;;10.63;2.40;;;;;;;;;;4952115;28;20038;-75
2021/09/16 09:49:24;;;;;;;12.90;2.35;;;;;;;;;;4958572;28;20103;-75
2021/09/16 09:51:55;;;;;;;9.98;1.88;;;;;;;;;;4954206;28;20122;-75
2021/09/16 09:54:22;;;;;;;8.35;1.70;;;;;;;;;;4933441;28;20034;-75
2021/09/16 09:57:07;;;;;;;8.45;1.90;;;;;;;;;;4968385;28;20198;-75
2021/09/16 09:59:54;;;;;;;9.25;1.60;;;;;;;;;;4953867;28;20054;-77
2021/09/16 10:02:21;;;;;;;10.98;2.10;;;;;;;;;;4952074;28;20166;-77
2021/09/16 10:04:48;;;;;;;11.45;1.48;;;;;;;;;;4956201;28;20064;-77
2021/09/16 10:07:31;;;;;;;10.93;1.80;;;;;;;;;;4959324;28;20053;-75
2021/09/16 10:09:58;;;;;;;10.20;1.95;;;;;;;;;;4957648;28;20038;-77
2021/09/16 10:12:24;;;;;;;9.48;2.05;;;;;;;;;;4965391;28;20030;-77
2021/09/16 10:14:50;;;;;;;9.98;2.45;;;;;;;;;;4960630;28;20058;-77
2021/09/16 10:17:17;;;;;;;9.20;1.83;;;;;;;;;;4951410;28;20034;-77
2021/09/16 10:19:43;;;;;;;8.45;1.88;;;;;;;;;;4956452;28;20087;-76
2021/09/16 10:22:10;;;;;;;8.40;1.70;;;;;;;;;;4938557;28;20093;-77
2021/09/16 10:24:36;;;;;;;7.97;1.63;;;;;;;;;;4931782;28;20589;-77
2021/09/16 10:27:03;;;;;;;9.85;1.67;;;;;;;;;;4952647;28;20098;-78
2021/09/16 10:29:29;;;;;;;7.78;1.65;;;;;;;;;;4933895;28;20042;-76
2021/09/16 10:32:08;;;;;;;7.95;1.67;;;;;;;;;;4951442;28;20156;-75
2021/09/16 10:34:47;;;;;;;11.77;2.15;;;;;;;;;;4953543;28;20047;-78
2021/09/16 10:37:18;;;;;;;10.35;1.80;;;;;;;;;;4956640;28;20077;-78
2021/09/16 10:39:46;;;;;;;10.43;1.73;;;;;;;;;;4953179;28;20056;-78
2021/09/16 10:42:14;;;;;;;8.77;1.60;;;;;;;;;;4950860;28;20125;-76
2021/09/16 10:44:42;;;;;;;7.10;1.52;;;;;;;;;;4956043;28;21063;-77
2021/09/16 10:47:19;;;;;;;9.05;1.50;;;;;;;;;;4973185;28;20073;-78
2021/09/16 10:49:46;;;;;;;9.63;1.85;;;;;;;;;;4952284;28;20468;-76
2021/09/16 10:52:12;;;;;;;10.52;1.90;;;;;;;;;;4957675;28;20074;-77
2021/09/16 10:54:38;;;;;;;9.40;1.98;;;;;;;;;;4951316;28;20030;-77
2021/09/16 10:57:05;;;;;;;8.07;1.52;;;;;;;;;;4969494;28;20034;-77
2021/09/16 10:59:49;;;;;;;11.40;1.92;;;;;;;;;;4967429;28;20048;-77
2021/09/16 11:02:16;;;;;;;9.90;1.67;;;;;;;;;;4955284;28;20472;-77
2021/09/16 11:04:58;;;;;;;7.68;1.73;;;;;;;;;;4952664;28;20030;-76
2021/09/16 11:07:31;;;;;;;11.82;2.00;;;;;;;;;;4955439;28;20046;-77
2021/09/16 11:09:57;;;;;;;9.60;1.88;;;;;;;;;;4953375;28;20066;-77
2021/09/16 11:12:30;;;;;;;10.77;2.00;;;;;;;;;;4955053;28;20038;-77
2021/09/16 11:14:57;;;;;;;11.55;2.35;;;;;;;;;;4960010;28;20065;-76
2021/09/16 11:17:27;;;;;;;13.45;2.20;;;;;;;;;;4963182;28;20796;-77
2021/09/16 11:19:54;;;;;;;14.35;2.13;;;;;;;;;;4971245;28;21012;-76
2021/09/16 11:22:25;;;;;;;13.00;2.15;;;;;;;;;;4944621;28;20046;-78
2021/09/16 11:24:54;;;;;;;14.15;2.05;;;;;;;;;;4952159;28;20125;-76
2021/09/16 11:27:31;;;;;;;12.20;2.60;;;;;;;;;;4931764;28;20027;-76
2021/09/16 11:29:58;;;;;;;11.73;2.10;;;;;;;;;;4956909;28;20046;-78
2021/09/16 11:32:34;;;;;;;14.55;2.50;;;;;;;;;;4965802;28;20035;-76
2021/09/16 11:35:02;;;;;;;12.63;2.40;;;;;;;;;;4958943;28;20104;-78
2021/09/16 11:37:32;;;;;;;13.80;2.50;;;;;;;;;;4952980;28;20596;-76
2021/09/16 11:40:01;;;;;;;13.05;2.45;;;;;;;;;;4960716;28;20084;-78
2021/09/16 11:42:29;;;;;;;12.00;2.63;;;;;;;;;;4943333;28;20038;-76
2021/09/16 11:45:04;;;;;;;13.30;2.30;;;;;;;;;;4965166;28;20035;-77
2021/09/16 11:47:30;;;;;;;;;;;;;;;;;;4954347;28;20042;-77
2021/09/16 11:49:56;;;;;;;12.70;2.45;;;;;;;;;;4969656;28;19961;-77
2021/09/16 11:52:23;;;;;;;13.68;2.20;;;;;;;;;;4970351;28;20042;-76
2021/09/16 11:55:04;;;;;;;14.18;2.40;;;;;;;;;;4961287;28;20049;-76
2021/09/16 11:57:31;;;;;;;17.25;2.63;;;;;;;;;;4956362;28;20625;-76
2021/09/16 11:59:57;;;;;;;15.60;2.60;;;;;;;;;;4959134;28;20023;-77
2021/09/16 12:02:24;;;;;;;13.98;2.67;;;;;;;;;;4959570;28;20088;-76
2021/09/16 12:04:50;;;;;;;14.18;2.83;;;;;;;;;;4957966;28;20046;-76
2021/09/16 12:07:18;;;;;;;14.38;2.40;;;;;;;;;;4956777;28;20113;-75
2021/09/16 12:09:45;;;;;;;13.23;2.95;;;;;;;;;;4958306;28;20125;-76
2021/09/16 12:12:11;;;;;;;10.82;2.17;;;;;;;;;;4954193;28;20114;-75
2021/09/16 12:14:37;;;;;;;12.25;2.28;;;;;;;;;;4967478;28;20088;-77
2021/09/16 12:17:04;;;;;;;14.10;2.50;;;;;;;;;;4956493;28;20039;-77
2021/09/16 12:19:31;;;;;;;11.30;2.80;;;;;;;;;;4954030;28;20042;-78
2021/09/16 12:21:58;;;;;;;12.30;2.17;;;;;;;;;;4974015;28;20481;-76
2021/09/16 12:24:28;;;;;;;10.85;1.90;;;;;;;;;;4955552;28;20600;-76
2021/09/16 12:26:56;;;;;;;11.00;2.60;;;;;;;;;;4957483;28;20693;-77
2021/09/16 12:29:24;;;;;;;14.77;1.90;;;;;;;;;;4951091;28;20053;-76
2021/09/16 12:31:59;;;;;;;9.73;1.98;;;;;;;;;;4967762;28;20042;-77
2021/09/16 12:34:28;;;;;;;9.43;2.20;;;;;;;;;;4958261;28;20039;-77
2021/09/16 12:36:59;;;;;;;9.30;1.70;;;;;;;;;;4957334;28;20050;-77
2021/09/16 12:39:27;;;;;;;8.63;1.80;;;;;;;;;;4952546;28;20034;-78
2021/09/16 12:41:54;;;;;;;8.73;2.00;;;;;;;;;;4955028;28;20103;-77
2021/09/16 12:44:33;;;;;;;11.52;2.20;;;;;;;;;;4955897;28;20089;-77
2021/09/16 12:47:07;;;;;;;10.10;2.13;;;;;;;;;;4952742;28;20092;-77
2021/09/16 12:49:34;;;;;;;12.45;2.25;;;;;;;;;;4954259;28;20110;-77
2021/09/16 12:52:04;;;;;;;9.98;2.00;;;;;;;;;;4971469;28;20042;-77
2021/09/16 12:54:32;;;;;;;9.18;1.80;;;;;;;;;;4971313;28;20113;-76
2021/09/16 12:56:59;;;;;;;10.15;2.53;;;;;;;;;;4972936;28;20030;-77
2021/09/16 12:59:26;;;;;;;11.85;2.33;;;;;;;;;;4967504;28;20046;-77
2021/09/16 13:02:15;;;;;;;11.20;2.30;;;;;;;;;;4957664;28;20034;-76
2021/09/16 13:04:47;;;;;;;11.00;2.42;;;;;;;;;;4945082;28;20034;-76
2021/09/16 13:07:14;;;;;;;11.10;2.42;;;;;;;;;;4953663;28;20057;-77
2021/09/16 13:09:40;;;;;;;9.30;1.70;;;;;;;;;;4954621;28;20158;-77
2021/09/16 13:12:29;;;;;;;10.55;2.17;;;;;;;;;;4957703;28;20133;-78
2021/09/16 13:14:55;;;;;;;10.95;2.40;;;;;;;;;;4956641;28;20060;-77
2021/09/16 13:17:21;;;;;;;11.35;2.13;;;;;;;;;;4954453;28;20096;-77
2021/09/16 13:19:54;;;;;;;12.80;3.03;;;;;;;;;;4969376;28;20117;-78
2021/09/16 13:22:22;;;;;;;18.05;2.80;;;;;;;;;;4952162;28;20034;-76
2021/09/16 13:24:48;;;;;;;10.50;2.70;;;;;;;;;;4958998;28;20350;-76
2021/09/16 13:27:14;;;;;;;11.52;2.05;;;;;;;;;;4957098;28;20053;-79
2021/09/16 13:29:41;;;;;;;9.40;2.03;;;;;;;;;;4952781;28;20849;-78
2021/09/16 13:32:07;;;;;;;12.05;2.40;;;;;;;;;;4957539;28;20026;-78
2021/09/16 13:34:34;;;;;;;13.32;2.67;;;;;;;;;;4948768;28;20133;-78
2021/09/16 13:37:00;;;;;;;16.60;3.60;;;;;;;;;;4956586;28;20049;-78
2021/09/16 13:39:27;;;;;;;13.90;3.10;;;;;;;;;;4950946;28;20030;-76
2021/09/16 13:41:53;;;;;;;12.10;3.05;;;;;;;;;;4970805;28;20027;-76
2021/09/16 13:44:21;;;;;;;14.63;2.95;;;;;;;;;;4951272;28;20218;-76
2021/09/16 13:46:48;;;;;;;13.82;2.72;;;;;;;;;;4957948;28;20046;-77
2021/09/16 13:49:15;;;;;;;12.27;2.35;;;;;;;;;;4958143;28;20050;-76
2021/09/16 13:51:41;;;;;;;12.27;2.25;;;;;;;;;;4945547;28;20045;-77
2021/09/16 13:54:08;;;;;;;13.63;2.72;;;;;;;;;;4957789;28;20025;-76
2021/09/16 13:56:34;;;;;;;12.98;2.72;;;;;;;;;;4947363;28;20110;-76
2021/09/16 13:59:00;;;;;;;13.07;2.20;;;;;;;;;;4969355;28;20048;-76
2021/09/16 14:01:26;;;;;;;15.55;2.15;;;;;;;;;;4953016;28;20038;-76
2021/09/16 14:03:53;;;;;;;14.10;2.60;;;;;;;;;;4972062;28;21020;-76
2021/09/16 14:06:20;;;;;;;14.57;2.33;;;;;;;;;;4957495;28;20031;-76
2021/09/16 14:08:46;;;;;;;11.50;2.10;;;;;;;;;;4971214;28;20027;-76
2021/09/16 14:11:14;;;;;;;11.02;2.05;;;;;;;;;;4955183;28;20116;-76
2021/09/16 14:13:43;;;;;;;10.60;2.08;;;;;;;;;;4951445;28;20045;-76
2021/09/16 14:16:09;;;;;;;12.57;2.53;;;;;;;;;;4953045;28;20050;-76
2021/09/16 14:18:37;;;;;;;13.05;2.40;;;;;;;;;;4948585;28;20913;-77
2021/09/16 14:21:04;;;;;;;12.23;2.50;;;;;;;;;;4961046;28;20066;-76
2021/09/16 14:23:32;;;;;;;11.18;2.33;;;;;;;;;;4952823;28;20084;-78
2021/09/16 14:25:59;;;;;;;9.70;1.92;;;;;;;;;;4969125;28;20030;-78
2021/09/16 14:28:25;;;;;;;15.52;2.13;;;;;;;;;;4964314;28;20829;-76
2021/09/16 14:30:51;;;;;;;10.75;2.05;;;;;;;;;;4951387;28;20088;-76
2021/09/16 14:33:21;;;;;;;13.32;2.65;;;;;;;;;;4950723;28;20030;-76
2021/09/16 14:35:47;;;;;;;12.68;2.13;;;;;;;;;;4967660;28;20034;-76
2021/09/16 14:38:13;;;;;;;11.57;2.10;;;;;;;;;;4967048;28;20594;-76
2021/09/16 14:40:40;;;;;;;11.73;2.40;;;;;;;;;;4948657;28;21097;-78
2021/09/16 14:43:09;;;;;;;14.45;3.00;;;;;;;;;;4953997;28;20030;-76
2021/09/16 14:45:35;;;;;;;12.32;2.63;;;;;;;;;;4954432;28;20023;-76